Sandstone, Minnesota
Current Conditions -  °F | °C
As of 1:46 PM on Thursday 27 Nov 2014 (Local Time) from K04W Reporting Station
Clear Clear  
Wind Chill: 10°   Ceiling: Unl
Heat Index: 10°   Visibility: 10mi
Dew Point: -4°   Wind: 0mph
Humidity: 52%   Direction: NA
Pressure: 30.42"   Gusts: NA
Location:  46.13°N, 92.87°W
Report Text: K04W 271946Z AUTO 00000KT 10SM CLR M12/M20 A3042 RMK AO2
Loading
Personal Weather Stations






























Interactive Weather Map New forecast layout! Learn more

10-Day Weather Forecast

Advertisements
Track Severe Weather on mobile